Etusivu
METAR-TAF:

METAR-TAF

Lentoasemat :

Djerba, Tunisia

Leveyspiiri: 33-52N, Pituuspiiri: 010-46E, korkeus merenpinnasta: 3 m

Tämänhetkinen sää

Tämä raportti tehtiin 29 minuuttia sitten, kello 17.00 UTC
Tuuli 10 kn idästä
Lämpötila 19°C
Kosteus 68%
Ilmanpaine 1012 hPa
Näkyvyys 10 km tai enemmän
Muutamia pilviä 2000 ft:n korkeudessa

METAR: DTTJ 271700Z 10010KT 9999 FEW020 19/13 Q1012 NOSIG

Aika: 18:29 (17:29 UTC)

Sääennuste

Tämä raportti tehtiin 6 tuntia ja 29 minuuttia sitten, kello 11.00 UTC
Ennuste voimassa 27. päivästä klo 12 UTC - 28. päivään klo 12 UTC
Tuuli 15 kn etelästä/kaakosta
Näkyvyys: 8000 m
Muutamia pilviä 2000 ft:n korkeudessa
Ajoittain
27. päivästä klo 20 UTC - 28. päivään klo 04 UTC
Tuuli 25 kn kaakosta puuskistuen 37 kn:hen
Tulossa
28. päivästä klo 04 UTC - 28. päivään klo 06 UTC
Tuuli 17 kn etelästä puuskistuen 27 kn:hen

TAF: DTTJ 271100Z 2712/2812 15015KT 8000 FEW020 TEMPO 2720/2804 14025G37KT BECMG 2804/2806 17017G27KT

Säähavainnot ja -ennusteet yli 4000 lentoasemalta (METAR- ja TAF-raportit).

Käytössä olevat sääasemat on merkitty karttaan keltaisilla ja punaisilla pisteillä.

Aseta hiiri pisteen päälle nähdäksesi sääaseman nimen.

Klikkaa sitten nähdäksesi säähavainnot ja -ennusteet.

Kartan vaihtaminen: klikkaa mustalla rastilla varustettuja vihreitä pisteitä, niin voit zoomata sisään; viivalla varustettua vihreää pistettä, niin voit zoomata ulos tai vihreitä nuolia, niin pääset viereisille kartoille.


METAR-TAF: